sensor_id;sensor_type;location;lat;lon;timestamp;temperature;humidity
44990;DHT22;30723;51.206;3.326;2023-07-20T00:02:16;17.40;99.90
44990;DHT22;30723;51.206;3.326;2023-07-20T00:04:42;17.40;99.90
44990;DHT22;30723;51.206;3.326;2023-07-20T00:07:07;17.40;99.90
44990;DHT22;30723;51.206;3.326;2023-07-20T00:09:34;17.40;99.90
44990;DHT22;30723;51.206;3.326;2023-07-20T00:12:01;17.40;99.90
44990;DHT22;30723;51.206;3.326;2023-07-20T00:14:28;17.40;99.90
44990;DHT22;30723;51.206;3.326;2023-07-20T00:16:56;17.50;99.90
44990;DHT22;30723;51.206;3.326;2023-07-20T00:19:41;17.50;99.90
44990;DHT22;30723;51.206;3.326;2023-07-20T00:22:08;17.40;99.90
44990;DHT22;30723;51.206;3.326;2023-07-20T00:24:35;17.30;99.90
44990;DHT22;30723;51.206;3.326;2023-07-20T00:27:04;17.30;99.90
44990;DHT22;30723;51.206;3.326;2023-07-20T00:29:31;17.30;99.90
44990;DHT22;30723;51.206;3.326;2023-07-20T00:31:58;17.20;99.90
44990;DHT22;30723;51.206;3.326;2023-07-20T00:34:25;17.20;99.90
44990;DHT22;30723;51.206;3.326;2023-07-20T00:36:51;17.20;99.90
44990;DHT22;30723;51.206;3.326;2023-07-20T00:39:17;17.20;99.90
44990;DHT22;30723;51.206;3.326;2023-07-20T00:41:44;17.10;99.90
44990;DHT22;30723;51.206;3.326;2023-07-20T00:44:10;17.20;99.90
44990;DHT22;30723;51.206;3.326;2023-07-20T00:46:37;17.20;99.90
44990;DHT22;30723;51.206;3.326;2023-07-20T00:49:04;17.20;99.90
44990;DHT22;30723;51.206;3.326;2023-07-20T00:51:32;17.20;99.90
44990;DHT22;30723;51.206;3.326;2023-07-20T00:54:00;17.20;99.90
44990;DHT22;30723;51.206;3.326;2023-07-20T00:56:26;17.20;99.90
44990;DHT22;30723;51.206;3.326;2023-07-20T00:58:53;17.20;99.90
44990;DHT22;30723;51.206;3.326;2023-07-20T01:01:19;17.30;99.90
44990;DHT22;30723;51.206;3.326;2023-07-20T01:03:46;17.20;99.90
44990;DHT22;30723;51.206;3.326;2023-07-20T01:11:16;17.00;99.90
44990;DHT22;30723;51.206;3.326;2023-07-20T01:13:44;17.00;99.90
44990;DHT22;30723;51.206;3.326;2023-07-20T01:16:11;16.80;99.90
44990;DHT22;30723;51.206;3.326;2023-07-20T01:18:37;16.80;99.90
44990;DHT22;30723;51.206;3.326;2023-07-20T01:21:08;16.70;99.90
44990;DHT22;30723;51.206;3.326;2023-07-20T01:24:18;16.70;99.90
44990;DHT22;30723;51.206;3.326;2023-07-20T01:32:45;16.60;99.90
44990;DHT22;30723;51.206;3.326;2023-07-20T01:35:14;16.60;99.90
44990;DHT22;30723;51.206;3.326;2023-07-20T01:37:44;16.60;99.90
44990;DHT22;30723;51.206;3.326;2023-07-20T01:40:16;16.60;99.90
44990;DHT22;30723;51.206;3.326;2023-07-20T01:42:46;16.60;99.90
44990;DHT22;30723;51.206;3.326;2023-07-20T01:45:13;16.60;99.90
44990;DHT22;30723;51.206;3.326;2023-07-20T01:47:38;16.60;99.90
44990;DHT22;30723;51.206;3.326;2023-07-20T01:50:07;16.60;99.90
44990;DHT22;30723;51.206;3.326;2023-07-20T01:52:34;16.70;99.90
44990;DHT22;30723;51.206;3.326;2023-07-20T01:55:00;16.80;99.90
44990;DHT22;30723;51.206;3.326;2023-07-20T01:57:25;16.80;99.90
44990;DHT22;30723;51.206;3.326;2023-07-20T01:59:52;16.80;99.90
44990;DHT22;30723;51.206;3.326;2023-07-20T02:02:18;16.80;99.90
44990;DHT22;30723;51.206;3.326;2023-07-20T02:04:44;16.80;99.90
44990;DHT22;30723;51.206;3.326;2023-07-20T02:07:10;16.80;99.90
44990;DHT22;30723;51.206;3.326;2023-07-20T02:09:35;16.90;99.90
44990;DHT22;30723;51.206;3.326;2023-07-20T02:12:02;16.90;99.90
44990;DHT22;30723;51.206;3.326;2023-07-20T02:14:29;16.90;99.90
44990;DHT22;30723;51.206;3.326;2023-07-20T02:16:55;16.90;99.90
44990;DHT22;30723;51.206;3.326;2023-07-20T02:19:25;17.00;99.90
44990;DHT22;30723;51.206;3.326;2023-07-20T02:21:53;17.00;99.90
44990;DHT22;30723;51.206;3.326;2023-07-20T02:24:20;17.10;99.90
44990;DHT22;30723;51.206;3.326;2023-07-20T02:26:46;17.10;99.90
44990;DHT22;30723;51.206;3.326;2023-07-20T02:29:13;17.10;99.90
44990;DHT22;30723;51.206;3.326;2023-07-20T02:31:39;17.10;99.90
44990;DHT22;30723;51.206;3.326;2023-07-20T02:34:08;17.10;99.90
44990;DHT22;30723;51.206;3.326;2023-07-20T02:36:35;17.20;99.90
44990;DHT22;30723;51.206;3.326;2023-07-20T02:39:02;17.20;99.90
44990;DHT22;30723;51.206;3.326;2023-07-20T02:41:32;17.20;99.90
44990;DHT22;30723;51.206;3.326;2023-07-20T02:43:59;17.20;99.90
44990;DHT22;30723;51.206;3.326;2023-07-20T02:46:26;17.20;99.90
44990;DHT22;30723;51.206;3.326;2023-07-20T02:48:53;17.30;99.90
44990;DHT22;30723;51.206;3.326;2023-07-20T02:51:22;17.40;99.90
44990;DHT22;30723;51.206;3.326;2023-07-20T02:53:48;17.40;99.90
44990;DHT22;30723;51.206;3.326;2023-07-20T02:56:15;17.30;99.90
44990;DHT22;30723;51.206;3.326;2023-07-20T02:58:43;17.30;99.90
44990;DHT22;30723;51.206;3.326;2023-07-20T03:01:12;17.30;99.90
44990;DHT22;30723;51.206;3.326;2023-07-20T03:03:39;17.20;99.90
44990;DHT22;30723;51.206;3.326;2023-07-20T03:06:06;17.20;99.90
44990;DHT22;30723;51.206;3.326;2023-07-20T03:08:35;17.30;99.90
44990;DHT22;30723;51.206;3.326;2023-07-20T03:11:02;17.20;99.90
44990;DHT22;30723;51.206;3.326;2023-07-20T03:13:29;17.20;99.90
44990;DHT22;30723;51.206;3.326;2023-07-20T03:15:56;17.20;99.90
44990;DHT22;30723;51.206;3.326;2023-07-20T03:18:22;17.20;99.90
44990;DHT22;30723;51.206;3.326;2023-07-20T03:20:48;17.20;99.90
44990;DHT22;30723;51.206;3.326;2023-07-20T03:23:15;17.30;99.90
44990;DHT22;30723;51.206;3.326;2023-07-20T03:25:43;17.30;99.90
44990;DHT22;30723;51.206;3.326;2023-07-20T03:28:09;17.30;99.90
44990;DHT22;30723;51.206;3.326;2023-07-20T03:30:36;17.30;99.90
44990;DHT22;30723;51.206;3.326;2023-07-20T03:33:03;17.30;99.90
44990;DHT22;30723;51.206;3.326;2023-07-20T03:35:29;17.40;99.90
44990;DHT22;30723;51.206;3.326;2023-07-20T03:37:56;17.30;99.90
44990;DHT22;30723;51.206;3.326;2023-07-20T03:40:23;17.30;99.90
44990;DHT22;30723;51.206;3.326;2023-07-20T03:42:50;17.30;99.90
44990;DHT22;30723;51.206;3.326;2023-07-20T03:45:17;17.40;99.90
44990;DHT22;30723;51.206;3.326;2023-07-20T03:47:44;17.40;99.90
44990;DHT22;30723;51.206;3.326;2023-07-20T03:50:11;17.40;99.90
44990;DHT22;30723;51.206;3.326;2023-07-20T03:52:38;17.40;99.90
44990;DHT22;30723;51.206;3.326;2023-07-20T03:55:05;17.40;99.90
44990;DHT22;30723;51.206;3.326;2023-07-20T03:57:31;17.30;99.90
44990;DHT22;30723;51.206;3.326;2023-07-20T03:59:58;17.30;99.90
44990;DHT22;30723;51.206;3.326;2023-07-20T04:02:24;17.30;99.90
44990;DHT22;30723;51.206;3.326;2023-07-20T04:04:52;17.20;99.90
44990;DHT22;30723;51.206;3.326;2023-07-20T04:07:19;17.20;99.90
44990;DHT22;30723;51.206;3.326;2023-07-20T04:09:45;17.20;99.90
44990;DHT22;30723;51.206;3.326;2023-07-20T04:12:12;17.20;99.90
44990;DHT22;30723;51.206;3.326;2023-07-20T04:14:39;17.20;99.90
44990;DHT22;30723;51.206;3.326;2023-07-20T04:17:05;17.20;99.90
44990;DHT22;30723;51.206;3.326;2023-07-20T04:19:31;17.20;99.90
44990;DHT22;30723;51.206;3.326;2023-07-20T04:21:58;17.20;99.90
44990;DHT22;30723;51.206;3.326;2023-07-20T04:24:24;17.30;99.90
44990;DHT22;30723;51.206;3.326;2023-07-20T04:26:51;17.30;99.90
44990;DHT22;30723;51.206;3.326;2023-07-20T04:29:18;17.30;99.90
44990;DHT22;30723;51.206;3.326;2023-07-20T04:31:45;17.30;99.90
44990;DHT22;30723;51.206;3.326;2023-07-20T04:34:12;17.30;99.90
44990;DHT22;30723;51.206;3.326;2023-07-20T04:36:38;17.40;99.90
44990;DHT22;30723;51.206;3.326;2023-07-20T04:39:05;17.40;99.90
44990;DHT22;30723;51.206;3.326;2023-07-20T04:41:33;17.50;99.90
44990;DHT22;30723;51.206;3.326;2023-07-20T04:44:00;17.50;99.90
44990;DHT22;30723;51.206;3.326;2023-07-20T04:46:27;17.50;99.90
44990;DHT22;30723;51.206;3.326;2023-07-20T04:48:54;17.50;99.90
44990;DHT22;30723;51.206;3.326;2023-07-20T04:51:20;17.50;99.90
44990;DHT22;30723;51.206;3.326;2023-07-20T04:53:48;17.60;99.90
44990;DHT22;30723;51.206;3.326;2023-07-20T04:56:15;17.60;99.90
44990;DHT22;30723;51.206;3.326;2023-07-20T04:58:41;17.60;99.90
44990;DHT22;30723;51.206;3.326;2023-07-20T05:01:08;17.70;99.90
44990;DHT22;30723;51.206;3.326;2023-07-20T05:03:35;17.70;99.90
44990;DHT22;30723;51.206;3.326;2023-07-20T05:06:02;17.70;99.90
44990;DHT22;30723;51.206;3.326;2023-07-20T05:08:29;17.70;99.90
44990;DHT22;30723;51.206;3.326;2023-07-20T05:10:55;17.70;99.90
44990;DHT22;30723;51.206;3.326;2023-07-20T05:13:22;17.70;99.90
44990;DHT22;30723;51.206;3.326;2023-07-20T05:15:52;17.70;99.90
44990;DHT22;30723;51.206;3.326;2023-07-20T05:18:19;17.70;99.90
44990;DHT22;30723;51.206;3.326;2023-07-20T05:20:50;17.70;99.90
44990;DHT22;30723;51.206;3.326;2023-07-20T05:23:18;17.80;99.90
44990;DHT22;30723;51.206;3.326;2023-07-20T05:25:58;17.80;99.90
44990;DHT22;30723;51.206;3.326;2023-07-20T05:28:26;17.80;99.90
44990;DHT22;30723;51.206;3.326;2023-07-20T05:30:53;17.90;99.90
44990;DHT22;30723;51.206;3.326;2023-07-20T05:33:20;18.20;99.90
44990;DHT22;30723;51.206;3.326;2023-07-20T05:35:47;18.50;99.90
44990;DHT22;30723;51.206;3.326;2023-07-20T05:38:15;18.90;99.90
44990;DHT22;30723;51.206;3.326;2023-07-20T05:40:44;19.40;99.90
44990;DHT22;30723;51.206;3.326;2023-07-20T05:43:10;19.90;99.90
44990;DHT22;30723;51.206;3.326;2023-07-20T05:45:37;20.30;99.90
44990;DHT22;30723;51.206;3.326;2023-07-20T05:48:04;20.50;99.90
44990;DHT22;30723;51.206;3.326;2023-07-20T05:50:30;20.30;99.90
44990;DHT22;30723;51.206;3.326;2023-07-20T05:52:57;20.30;99.90
44990;DHT22;30723;51.206;3.326;2023-07-20T05:55:24;20.10;99.90
44990;DHT22;30723;51.206;3.326;2023-07-20T05:57:51;20.30;99.90
44990;DHT22;30723;51.206;3.326;2023-07-20T06:00:19;20.50;99.90
44990;DHT22;30723;51.206;3.326;2023-07-20T06:02:52;20.60;99.90
44990;DHT22;30723;51.206;3.326;2023-07-20T06:05:19;20.60;99.90
44990;DHT22;30723;51.206;3.326;2023-07-20T06:07:46;20.50;99.90
44990;DHT22;30723;51.206;3.326;2023-07-20T06:10:12;20.60;99.90
44990;DHT22;30723;51.206;3.326;2023-07-20T06:12:38;21.00;99.90
44990;DHT22;30723;51.206;3.326;2023-07-20T06:15:16;21.40;99.90
44990;DHT22;30723;51.206;3.326;2023-07-20T06:17:50;21.60;99.90
44990;DHT22;30723;51.206;3.326;2023-07-20T06:20:16;22.10;99.90
44990;DHT22;30723;51.206;3.326;2023-07-20T06:22:43;22.50;99.90
44990;DHT22;30723;51.206;3.326;2023-07-20T06:25:11;23.00;99.90
44990;DHT22;30723;51.206;3.326;2023-07-20T06:27:38;23.40;99.90
44990;DHT22;30723;51.206;3.326;2023-07-20T06:30:06;23.80;99.90
44990;DHT22;30723;51.206;3.326;2023-07-20T06:32:32;24.30;99.90
44990;DHT22;30723;51.206;3.326;2023-07-20T06:34:58;24.60;99.90
44990;DHT22;30723;51.206;3.326;2023-07-20T06:37:25;24.90;99.90
44990;DHT22;30723;51.206;3.326;2023-07-20T06:39:51;24.90;99.90
44990;DHT22;30723;51.206;3.326;2023-07-20T06:42:19;25.40;99.90
44990;DHT22;30723;51.206;3.326;2023-07-20T06:44:45;25.70;99.90
44990;DHT22;30723;51.206;3.326;2023-07-20T06:47:11;26.00;99.90
44990;DHT22;30723;51.206;3.326;2023-07-20T06:49:39;25.60;99.90
44990;DHT22;30723;51.206;3.326;2023-07-20T06:52:07;25.10;99.90
44990;DHT22;30723;51.206;3.326;2023-07-20T06:54:34;24.60;99.90
44990;DHT22;30723;51.206;3.326;2023-07-20T06:57:00;24.10;99.90
44990;DHT22;30723;51.206;3.326;2023-07-20T06:59:27;23.60;99.90
44990;DHT22;30723;51.206;3.326;2023-07-20T07:01:52;23.30;99.90
44990;DHT22;30723;51.206;3.326;2023-07-20T07:04:19;23.10;99.90
44990;DHT22;30723;51.206;3.326;2023-07-20T07:06:45;23.00;99.90
44990;DHT22;30723;51.206;3.326;2023-07-20T07:09:12;23.00;99.90
44990;DHT22;30723;51.206;3.326;2023-07-20T07:11:38;22.70;99.90
44990;DHT22;30723;51.206;3.326;2023-07-20T07:14:04;22.60;99.90
44990;DHT22;30723;51.206;3.326;2023-07-20T07:16:31;23.10;99.90
44990;DHT22;30723;51.206;3.326;2023-07-20T07:18:57;23.40;99.90
44990;DHT22;30723;51.206;3.326;2023-07-20T07:21:22;24.10;99.90
44990;DHT22;30723;51.206;3.326;2023-07-20T07:23:48;24.40;99.90
44990;DHT22;30723;51.206;3.326;2023-07-20T07:26:16;24.50;99.90
44990;DHT22;30723;51.206;3.326;2023-07-20T07:28:43;24.30;99.90
44990;DHT22;30723;51.206;3.326;2023-07-20T07:31:10;24.10;99.90
44990;DHT22;30723;51.206;3.326;2023-07-20T07:33:36;24.30;99.90
44990;DHT22;30723;51.206;3.326;2023-07-20T07:36:02;24.40;99.90
44990;DHT22;30723;51.206;3.326;2023-07-20T07:38:29;24.70;99.90
44990;DHT22;30723;51.206;3.326;2023-07-20T07:40:56;24.60;99.90
44990;DHT22;30723;51.206;3.326;2023-07-20T07:43:22;24.40;99.90
44990;DHT22;30723;51.206;3.326;2023-07-20T07:45:48;24.40;99.90
44990;DHT22;30723;51.206;3.326;2023-07-20T07:48:15;24.50;99.90
44990;DHT22;30723;51.206;3.326;2023-07-20T07:50:42;24.00;99.90
44990;DHT22;30723;51.206;3.326;2023-07-20T07:53:09;23.80;99.90
44990;DHT22;30723;51.206;3.326;2023-07-20T07:55:35;23.80;99.90
44990;DHT22;30723;51.206;3.326;2023-07-20T07:58:02;23.90;99.90
44990;DHT22;30723;51.206;3.326;2023-07-20T08:00:29;24.00;99.90
44990;DHT22;30723;51.206;3.326;2023-07-20T08:02:55;24.00;99.90
44990;DHT22;30723;51.206;3.326;2023-07-20T08:05:21;23.70;99.90
44990;DHT22;30723;51.206;3.326;2023-07-20T08:07:46;23.70;99.90
44990;DHT22;30723;51.206;3.326;2023-07-20T08:10:12;23.50;99.90
44990;DHT22;30723;51.206;3.326;2023-07-20T08:12:39;23.80;99.90
44990;DHT22;30723;51.206;3.326;2023-07-20T08:15:07;24.00;99.90
44990;DHT22;30723;51.206;3.326;2023-07-20T08:17:33;23.80;99.90
44990;DHT22;30723;51.206;3.326;2023-07-20T08:20:00;23.10;99.90
44990;DHT22;30723;51.206;3.326;2023-07-20T08:22:27;23.50;99.90
44990;DHT22;30723;51.206;3.326;2023-07-20T08:24:54;23.80;99.90
44990;DHT22;30723;51.206;3.326;2023-07-20T08:27:29;24.10;99.90
44990;DHT22;30723;51.206;3.326;2023-07-20T08:29:56;23.70;99.90
44990;DHT22;30723;51.206;3.326;2023-07-20T08:32:23;23.70;99.90
44990;DHT22;30723;51.206;3.326;2023-07-20T08:34:49;24.10;99.90
44990;DHT22;30723;51.206;3.326;2023-07-20T08:37:16;24.50;99.90
44990;DHT22;30723;51.206;3.326;2023-07-20T08:39:42;25.00;99.90
44990;DHT22;30723;51.206;3.326;2023-07-20T08:42:10;25.70;99.90
44990;DHT22;30723;51.206;3.326;2023-07-20T08:44:39;26.10;99.90
44990;DHT22;30723;51.206;3.326;2023-07-20T08:47:08;26.20;99.90
44990;DHT22;30723;51.206;3.326;2023-07-20T08:49:35;26.30;99.90
44990;DHT22;30723;51.206;3.326;2023-07-20T08:52:02;26.20;99.90
44990;DHT22;30723;51.206;3.326;2023-07-20T08:54:31;26.10;99.90
44990;DHT22;30723;51.206;3.326;2023-07-20T08:57:19;26.20;99.90
44990;DHT22;30723;51.206;3.326;2023-07-20T08:59:47;26.40;99.90
44990;DHT22;30723;51.206;3.326;2023-07-20T09:02:16;26.50;99.90
44990;DHT22;30723;51.206;3.326;2023-07-20T09:04:45;26.80;99.90
44990;DHT22;30723;51.206;3.326;2023-07-20T09:07:13;26.70;99.90
44990;DHT22;30723;51.206;3.326;2023-07-20T09:09:40;26.90;99.90
44990;DHT22;30723;51.206;3.326;2023-07-20T09:12:14;27.10;99.90
44990;DHT22;30723;51.206;3.326;2023-07-20T09:14:43;27.10;99.90
44990;DHT22;30723;51.206;3.326;2023-07-20T09:17:13;27.10;99.90
44990;DHT22;30723;51.206;3.326;2023-07-20T09:19:46;26.90;99.90
44990;DHT22;30723;51.206;3.326;2023-07-20T09:22:12;26.60;99.90
44990;DHT22;30723;51.206;3.326;2023-07-20T09:24:40;25.70;99.90
44990;DHT22;30723;51.206;3.326;2023-07-20T09:27:07;25.70;99.90
44990;DHT22;30723;51.206;3.326;2023-07-20T09:29:57;25.90;99.90
44990;DHT22;30723;51.206;3.326;2023-07-20T09:32:23;26.10;99.90
44990;DHT22;30723;51.206;3.326;2023-07-20T09:34:52;26.70;99.90
44990;DHT22;30723;51.206;3.326;2023-07-20T09:37:24;27.30;99.90
44990;DHT22;30723;51.206;3.326;2023-07-20T09:39:52;27.60;99.90
44990;DHT22;30723;51.206;3.326;2023-07-20T09:42:20;27.30;99.90
44990;DHT22;30723;51.206;3.326;2023-07-20T09:44:47;27.10;99.90
44990;DHT22;30723;51.206;3.326;2023-07-20T09:47:22;27.00;99.90
44990;DHT22;30723;51.206;3.326;2023-07-20T09:49:54;26.90;99.90
44990;DHT22;30723;51.206;3.326;2023-07-20T09:52:22;26.70;99.90
44990;DHT22;30723;51.206;3.326;2023-07-20T09:54:49;26.40;99.90
44990;DHT22;30723;51.206;3.326;2023-07-20T09:57:16;25.90;99.90
44990;DHT22;30723;51.206;3.326;2023-07-20T09:59:43;25.70;99.90
44990;DHT22;30723;51.206;3.326;2023-07-20T10:02:23;25.90;99.90
44990;DHT22;30723;51.206;3.326;2023-07-20T10:04:53;26.10;99.90
44990;DHT22;30723;51.206;3.326;2023-07-20T10:07:22;26.90;99.90
44990;DHT22;30723;51.206;3.326;2023-07-20T10:09:56;28.60;99.20
44990;DHT22;30723;51.206;3.326;2023-07-20T10:12:25;30.70;96.10
44990;DHT22;30723;51.206;3.326;2023-07-20T10:15:12;32.30;92.50
44990;DHT22;30723;51.206;3.326;2023-07-20T10:18:09;32.80;90.00
44990;DHT22;30723;51.206;3.326;2023-07-20T10:20:55;34.80;81.20
44990;DHT22;30723;51.206;3.326;2023-07-20T10:23:22;36.00;77.20
44990;DHT22;30723;51.206;3.326;2023-07-20T10:25:50;36.40;70.90
44990;DHT22;30723;51.206;3.326;2023-07-20T10:28:17;36.20;67.40
44990;DHT22;30723;51.206;3.326;2023-07-20T10:30:44;37.40;64.50
44990;DHT22;30723;51.206;3.326;2023-07-20T10:33:11;36.00;64.50
44990;DHT22;30723;51.206;3.326;2023-07-20T10:35:58;37.80;63.60
44990;DHT22;30723;51.206;3.326;2023-07-20T10:43:46;41.40;54.40
44990;DHT22;30723;51.206;3.326;2023-07-20T10:46:13;40.70;52.20
44990;DHT22;30723;51.206;3.326;2023-07-20T10:49:02;40.10;51.90
44990;DHT22;30723;51.206;3.326;2023-07-20T10:51:40;38.20;53.80
44990;DHT22;30723;51.206;3.326;2023-07-20T10:56:58;35.70;56.20
44990;DHT22;30723;51.206;3.326;2023-07-20T10:59:45;34.30;58.80
44990;DHT22;30723;51.206;3.326;2023-07-20T11:02:12;33.10;61.10
44990;DHT22;30723;51.206;3.326;2023-07-20T11:04:42;32.20;63.00
44990;DHT22;30723;51.206;3.326;2023-07-20T11:07:09;31.40;65.20
44990;DHT22;30723;51.206;3.326;2023-07-20T11:09:37;32.10;66.00
44990;DHT22;30723;51.206;3.326;2023-07-20T11:12:16;33.00;64.70
44990;DHT22;30723;51.206;3.326;2023-07-20T11:14:53;32.60;63.10
44990;DHT22;30723;51.206;3.326;2023-07-20T11:17:22;32.10;64.60
44990;DHT22;30723;51.206;3.326;2023-07-20T11:19:56;31.10;66.20
44990;DHT22;30723;51.206;3.326;2023-07-20T11:22:23;29.90;68.00
44990;DHT22;30723;51.206;3.326;2023-07-20T11:24:50;28.80;71.60
44990;DHT22;30723;51.206;3.326;2023-07-20T11:27:21;27.80;74.90
44990;DHT22;30723;51.206;3.326;2023-07-20T11:29:51;26.90;77.20
44990;DHT22;30723;51.206;3.326;2023-07-20T11:32:24;26.30;81.20
44990;DHT22;30723;51.206;3.326;2023-07-20T11:34:51;26.10;85.10
44990;DHT22;30723;51.206;3.326;2023-07-20T11:37:18;25.80;86.40
44990;DHT22;30723;51.206;3.326;2023-07-20T11:39:45;25.60;91.10
44990;DHT22;30723;51.206;3.326;2023-07-20T11:42:11;25.50;92.50
44990;DHT22;30723;51.206;3.326;2023-07-20T11:44:38;25.20;95.40
44990;DHT22;30723;51.206;3.326;2023-07-20T11:47:11;25.00;98.20
44990;DHT22;30723;51.206;3.326;2023-07-20T11:50:03;24.80;99.20
44990;DHT22;30723;51.206;3.326;2023-07-20T11:52:29;24.60;99.90
44990;DHT22;30723;51.206;3.326;2023-07-20T11:54:55;24.50;99.90
44990;DHT22;30723;51.206;3.326;2023-07-20T11:57:22;24.10;99.90
44990;DHT22;30723;51.206;3.326;2023-07-20T11:59:56;24.10;99.90
44990;DHT22;30723;51.206;3.326;2023-07-20T12:02:30;24.00;99.90
44990;DHT22;30723;51.206;3.326;2023-07-20T12:04:57;23.90;99.90
44990;DHT22;30723;51.206;3.326;2023-07-20T12:07:28;23.60;99.90
44990;DHT22;30723;51.206;3.326;2023-07-20T12:10:12;23.30;99.90
44990;DHT22;30723;51.206;3.326;2023-07-20T12:12:43;23.00;99.90
44990;DHT22;30723;51.206;3.326;2023-07-20T12:15:27;22.80;99.90
44990;DHT22;30723;51.206;3.326;2023-07-20T12:17:56;22.60;99.90
44990;DHT22;30723;51.206;3.326;2023-07-20T12:20:26;22.50;99.90
44990;DHT22;30723;51.206;3.326;2023-07-20T12:22:55;22.30;99.90
44990;DHT22;30723;51.206;3.326;2023-07-20T12:25:21;22.10;99.90
44990;DHT22;30723;51.206;3.326;2023-07-20T12:27:48;21.90;99.90
44990;DHT22;30723;51.206;3.326;2023-07-20T12:30:14;21.70;99.90
44990;DHT22;30723;51.206;3.326;2023-07-20T12:32:40;21.70;99.90
44990;DHT22;30723;51.206;3.326;2023-07-20T12:35:08;21.50;99.90
44990;DHT22;30723;51.206;3.326;2023-07-20T12:37:33;21.10;99.90
44990;DHT22;30723;51.206;3.326;2023-07-20T12:40:03;20.70;99.90
44990;DHT22;30723;51.206;3.326;2023-07-20T12:42:29;20.50;99.90
44990;DHT22;30723;51.206;3.326;2023-07-20T12:44:56;20.20;99.90
44990;DHT22;30723;51.206;3.326;2023-07-20T12:47:22;20.10;99.90
44990;DHT22;30723;51.206;3.326;2023-07-20T12:49:48;20.20;99.90
44990;DHT22;30723;51.206;3.326;2023-07-20T12:52:14;20.40;99.90
44990;DHT22;30723;51.206;3.326;2023-07-20T12:54:41;20.70;99.90
44990;DHT22;30723;51.206;3.326;2023-07-20T12:57:07;20.90;99.90
44990;DHT22;30723;51.206;3.326;2023-07-20T12:59:33;21.30;99.90
44990;DHT22;30723;51.206;3.326;2023-07-20T13:01:59;21.70;99.90
44990;DHT22;30723;51.206;3.326;2023-07-20T13:04:24;22.00;99.90
44990;DHT22;30723;51.206;3.326;2023-07-20T13:06:50;22.30;99.90
44990;DHT22;30723;51.206;3.326;2023-07-20T13:09:16;22.20;99.90
44990;DHT22;30723;51.206;3.326;2023-07-20T13:11:42;22.40;99.90
44990;DHT22;30723;51.206;3.326;2023-07-20T13:14:10;22.40;99.90
44990;DHT22;30723;51.206;3.326;2023-07-20T13:16:38;22.50;99.90
44990;DHT22;30723;51.206;3.326;2023-07-20T13:19:03;22.50;99.90
44990;DHT22;30723;51.206;3.326;2023-07-20T13:21:30;22.60;99.90
44990;DHT22;30723;51.206;3.326;2023-07-20T13:23:57;22.60;99.90
44990;DHT22;30723;51.206;3.326;2023-07-20T13:26:24;22.50;99.90
44990;DHT22;30723;51.206;3.326;2023-07-20T13:28:51;22.40;99.90
44990;DHT22;30723;51.206;3.326;2023-07-20T13:31:18;22.40;99.90
44990;DHT22;30723;51.206;3.326;2023-07-20T13:33:44;22.60;99.90
44990;DHT22;30723;51.206;3.326;2023-07-20T13:36:10;22.50;99.90
44990;DHT22;30723;51.206;3.326;2023-07-20T13:38:37;22.70;99.90
44990;DHT22;30723;51.206;3.326;2023-07-20T13:41:03;22.70;99.90
44990;DHT22;30723;51.206;3.326;2023-07-20T13:43:30;22.90;99.90
44990;DHT22;30723;51.206;3.326;2023-07-20T13:45:56;22.80;99.90
44990;DHT22;30723;51.206;3.326;2023-07-20T13:48:22;22.70;99.90
44990;DHT22;30723;51.206;3.326;2023-07-20T13:50:48;22.80;99.90
44990;DHT22;30723;51.206;3.326;2023-07-20T13:53:15;22.60;99.90
44990;DHT22;30723;51.206;3.326;2023-07-20T13:55:42;22.50;99.90
44990;DHT22;30723;51.206;3.326;2023-07-20T13:58:09;22.30;99.90
44990;DHT22;30723;51.206;3.326;2023-07-20T14:00:38;22.30;99.90
44990;DHT22;30723;51.206;3.326;2023-07-20T14:03:04;22.30;99.90
44990;DHT22;30723;51.206;3.326;2023-07-20T14:05:31;22.20;99.90
44990;DHT22;30723;51.206;3.326;2023-07-20T14:08:05;22.20;99.90
44990;DHT22;30723;51.206;3.326;2023-07-20T14:10:31;22.10;99.90
44990;DHT22;30723;51.206;3.326;2023-07-20T14:12:57;22.00;99.90
44990;DHT22;30723;51.206;3.326;2023-07-20T14:15:23;22.00;99.90
44990;DHT22;30723;51.206;3.326;2023-07-20T14:17:49;22.00;99.90
44990;DHT22;30723;51.206;3.326;2023-07-20T14:20:15;22.10;99.90
44990;DHT22;30723;51.206;3.326;2023-07-20T14:22:42;22.20;99.90
44990;DHT22;30723;51.206;3.326;2023-07-20T14:25:09;22.40;99.90
44990;DHT22;30723;51.206;3.326;2023-07-20T14:27:35;22.60;99.90
44990;DHT22;30723;51.206;3.326;2023-07-20T14:30:01;22.60;99.90
44990;DHT22;30723;51.206;3.326;2023-07-20T14:32:28;22.80;99.90
44990;DHT22;30723;51.206;3.326;2023-07-20T14:34:54;22.70;99.90
44990;DHT22;30723;51.206;3.326;2023-07-20T14:37:20;22.80;99.90
44990;DHT22;30723;51.206;3.326;2023-07-20T14:39:46;22.90;99.90
44990;DHT22;30723;51.206;3.326;2023-07-20T14:42:13;22.70;99.90
44990;DHT22;30723;51.206;3.326;2023-07-20T14:44:40;22.80;99.90
44990;DHT22;30723;51.206;3.326;2023-07-20T14:47:06;22.90;99.90
44990;DHT22;30723;51.206;3.326;2023-07-20T14:49:33;23.10;99.90
44990;DHT22;30723;51.206;3.326;2023-07-20T14:52:00;23.10;99.90
44990;DHT22;30723;51.206;3.326;2023-07-20T14:54:26;23.20;99.90
44990;DHT22;30723;51.206;3.326;2023-07-20T14:56:53;23.20;99.90
44990;DHT22;30723;51.206;3.326;2023-07-20T14:59:21;23.00;99.90
44990;DHT22;30723;51.206;3.326;2023-07-20T15:01:46;23.20;99.90
44990;DHT22;30723;51.206;3.326;2023-07-20T15:04:13;23.80;99.90
44990;DHT22;30723;51.206;3.326;2023-07-20T15:06:40;24.90;99.90
44990;DHT22;30723;51.206;3.326;2023-07-20T15:09:05;25.70;99.90
44990;DHT22;30723;51.206;3.326;2023-07-20T15:11:31;26.20;99.90
44990;DHT22;30723;51.206;3.326;2023-07-20T15:13:57;26.80;99.90
44990;DHT22;30723;51.206;3.326;2023-07-20T15:16:25;27.60;99.90
44990;DHT22;30723;51.206;3.326;2023-07-20T15:18:51;28.60;99.90
44990;DHT22;30723;51.206;3.326;2023-07-20T15:21:17;29.90;99.90
44990;DHT22;30723;51.206;3.326;2023-07-20T15:23:43;31.00;99.90
44990;DHT22;30723;51.206;3.326;2023-07-20T15:26:09;31.30;99.90
44990;DHT22;30723;51.206;3.326;2023-07-20T15:28:38;32.00;99.90
44990;DHT22;30723;51.206;3.326;2023-07-20T15:31:05;32.00;96.40
44990;DHT22;30723;51.206;3.326;2023-07-20T15:33:32;31.50;93.60
44990;DHT22;30723;51.206;3.326;2023-07-20T15:35:58;31.30;95.30
44990;DHT22;30723;51.206;3.326;2023-07-20T15:38:25;30.70;96.10
44990;DHT22;30723;51.206;3.326;2023-07-20T15:40:51;31.10;96.30
44990;DHT22;30723;51.206;3.326;2023-07-20T15:43:18;30.90;95.30
44990;DHT22;30723;51.206;3.326;2023-07-20T15:45:48;29.20;95.20
44990;DHT22;30723;51.206;3.326;2023-07-20T15:48:17;29.30;96.20
44990;DHT22;30723;51.206;3.326;2023-07-20T15:50:45;28.40;99.50
44990;DHT22;30723;51.206;3.326;2023-07-20T15:53:12;28.30;99.90
44990;DHT22;30723;51.206;3.326;2023-07-20T15:55:39;28.60;99.90